Time;durP1;ratioP1;P1;durP2;ratioP2;P2;SDS_P1;SDS_P2;PMS_P1;PMS_P2;Temp;Humidity;BMP_temperature;BMP_pressure;BME280_temperature;BME280_humidity;BME280_pressure;Samples;Min_cycle;Max_cycle;Signal;HPM_P1;HPM_P2
2022/12/06 00:01:08;;;;;;;;;47.00;36.33;;;;;4.02;90.74;99502.38;5016536;28;45457;-77
2022/12/06 00:03:34;;;;;;;;;54.67;38.67;;;;;3.99;90.68;99507.66;5015696;28;45389;-77
2022/12/06 00:06:07;;;;;;;;;45.33;37.67;;;;;3.97;90.61;99504.19;5015714;28;45393;-77
2022/12/06 00:08:33;;;;;;;;;57.67;39.00;;;;;3.94;91.08;99505.94;5015729;28;45466;-77
2022/12/06 00:11:06;;;;;;;;;43.00;33.33;;;;;3.91;90.98;99506.84;5016166;28;45381;-77
2022/12/06 00:13:32;;;;;;;;;48.00;39.33;;;;;3.88;91.19;99499.03;5016137;28;45589;-77
2022/12/06 00:16:06;;;;;;;;;54.33;39.33;;;;;3.85;91.21;99494.69;5015809;28;45974;-77
2022/12/06 00:18:32;;;;;;;;;50.67;40.67;;;;;3.85;91.03;99496.47;5015573;28;45369;-78
2022/12/06 00:21:27;;;;;;;;;55.67;41.00;;;;;3.83;91.35;99490.38;5015546;28;45373;-77
2022/12/06 00:23:57;;;;;;;;;40.67;36.67;;;;;3.81;91.36;99493.00;5028498;28;45489;-77
2022/12/06 00:26:24;;;;;;;;;40.50;35.50;;;;;3.80;91.35;99493.88;5015635;28;46310;-77
2022/12/06 00:28:55;;;;;;;;;40.00;37.00;;;;;3.79;91.61;99489.53;5015149;28;45432;-78
2022/12/06 00:31:23;;;;;;;;;32.67;26.67;;;;;3.79;91.45;99491.28;5015922;28;45396;-77
2022/12/06 00:33:49;;;;;;;;;39.67;36.67;;;;;3.79;91.41;99486.94;5015546;28;45412;-77
2022/12/06 00:36:19;;;;;;;;;45.33;38.00;;;;;3.81;91.71;99484.31;5015115;28;45494;-77
2022/12/06 00:38:45;;;;;;;;;41.00;33.67;;;;;3.80;91.72;99483.44;5014931;28;45345;-77
2022/12/06 00:41:13;;;;;;;;;52.33;38.67;;;;;3.80;91.44;99486.06;5015174;28;45376;-77
2022/12/06 00:43:39;;;;;;;;;41.00;37.00;;;;;3.79;91.61;99479.09;5015410;28;45510;-77
2022/12/06 00:46:07;;;;;;;;;49.67;40.33;;;;;3.80;91.43;99482.59;5015175;28;45413;-77
2022/12/06 00:48:33;;;;;;;;;48.33;41.00;;;;;3.78;91.67;99481.72;5015608;28;45475;-78
2022/12/06 00:50:58;;;;;;;;;42.67;37.67;;;;;3.77;91.64;99487.81;5015567;28;45445;-77
2022/12/06 00:53:24;;;;;;;;;38.00;30.00;;;;;3.77;91.85;99486.06;5014888;28;45543;-77
2022/12/06 00:55:50;;;;;;;;;48.67;32.33;;;;;3.77;91.78;99477.38;5015259;28;45369;-77
2022/12/06 00:58:16;;;;;;;;;48.33;37.33;;;;;3.79;91.84;99483.47;5014092;28;45365;-76
2022/12/06 01:00:42;;;;;;;;;37.33;33.33;;;;;3.82;91.68;99484.31;5015485;28;45537;-76
2022/12/06 01:03:08;;;;;;;;;43.33;35.33;;;;;3.84;91.88;99476.47;5014780;28;45620;-76
2022/12/06 01:05:39;;;;;;;;;54.00;40.00;;;;;3.84;91.81;99472.13;5014242;28;46148;-76
2022/12/06 01:08:04;;;;;;;;;39.33;33.33;;;;;3.84;91.71;99466.91;5014003;28;45453;-76
2022/12/06 01:10:30;;;;;;;;;37.67;31.00;;;;;3.86;91.75;99469.47;5014964;28;45394;-76
2022/12/06 01:12:55;;;;;;;;;38.00;33.67;;;;;3.86;91.43;99465.13;5015073;28;45434;-77
2022/12/06 01:15:20;;;;;;;;;42.67;37.33;;;;;3.86;91.50;99462.53;5014496;28;46170;-76
2022/12/06 01:17:46;;;;;;;;;41.33;34.67;;;;;3.88;91.39;99461.66;5014490;28;45487;-76
2022/12/06 01:20:11;;;;;;;;;38.67;34.33;;;;;3.86;91.58;99469.47;5013410;28;45421;-76
2022/12/06 01:22:37;;;;;;;;;40.67;32.00;;;;;3.83;91.39;99467.78;5030018;28;45540;-76
2022/12/06 01:25:02;;;;;;;;;41.00;34.67;;;;;3.82;91.53;99463.44;5014289;28;46311;-76
2022/12/06 01:27:28;;;;;;;;;43.33;31.33;;;;;3.80;91.45;99464.31;5014372;28;45449;-77
2022/12/06 01:29:55;;;;;;;;;47.33;31.33;;;;;3.76;91.37;99463.47;5014437;28;45397;-78
2022/12/06 01:32:21;;;;;;;;;39.33;33.33;;;;;3.73;91.31;99460.03;5029742;28;45457;-77
2022/12/06 01:34:50;;;;;;;;;44.00;36.67;;;;;3.71;91.45;99461.78;5014676;28;46071;-75
2022/12/06 01:37:16;;;;;;;;;47.00;38.67;;;;;3.69;91.55;99460.91;5014483;28;45377;-77
2022/12/06 01:39:43;;;;;;;;;44.00;33.67;;;;;3.69;91.58;99467.00;5029766;28;45406;-78
2022/12/06 01:42:10;;;;;;;;;37.33;33.00;;;;;3.68;91.71;99464.44;5014932;28;45566;-77
2022/12/06 01:44:41;;;;;;;;;47.00;38.00;;;;;3.68;91.71;99467.03;5014663;28;45578;-77
2022/12/06 01:47:31;;;;;;;;;49.67;38.00;;;;;3.67;91.83;99463.56;5014697;28;45539;-77
2022/12/06 01:50:08;;;;;;;;;48.00;34.67;;;;;3.66;91.93;99464.44;5014266;28;45456;-78
2022/12/06 01:52:40;;;;;;;;;47.67;38.00;;;;;3.67;91.76;99465.31;5014456;28;45375;-77
2022/12/06 01:55:09;;;;;;;;;50.33;37.67;;;;;3.66;91.71;99458.34;5014143;28;46527;-78
2022/12/06 01:57:34;;;;;;;;;42.67;35.00;;;;;3.65;91.56;99462.69;5014011;28;45345;-78
2022/12/06 02:00:04;;;;;;;;;37.33;26.00;;;;;3.65;91.36;99461.84;5014168;28;45551;-78
2022/12/06 02:02:30;;;;;;;;;37.33;36.33;;;;;3.62;91.70;99462.72;5013542;28;45345;-78
2022/12/06 02:04:57;;;;;;;;;39.00;32.33;;;;;3.61;91.70;99460.97;5012840;28;46456;-78
2022/12/06 02:07:26;;;;;;;;;42.00;35.50;;;;;3.61;91.64;99463.59;5012271;28;46043;-77
2022/12/06 02:09:52;;;;;;;;;35.33;30.67;;;;;3.56;91.31;99464.47;5045856;28;45482;-77
2022/12/06 02:12:17;;;;;;;;;34.67;32.00;;;;;3.53;91.63;99462.75;5013726;28;45531;-77
2022/12/06 02:14:47;;;;;;;;;42.33;33.33;;;;;3.51;91.58;99461.94;5012154;28;48102;-77
2022/12/06 02:17:27;;;;;;;;;39.33;28.67;;;;;3.49;91.75;99458.47;5013920;28;45413;-77
2022/12/06 02:20:25;;;;;;;;;29.67;27.67;;;;;3.44;91.43;99453.28;5014232;28;45484;-77
2022/12/06 02:23:41;;;;;;;;;34.33;28.67;;;;;3.40;91.69;99459.38;5013645;28;45372;-77
2022/12/06 02:26:34;;;;;;;;;38.33;32.33;;;;;3.36;91.77;99459.38;4972252;28;45570;-77
2022/12/06 02:29:16;;;;;;;;;34.67;28.00;;;;;3.33;91.87;99467.25;5009598;28;45472;-77
2022/12/06 02:32:02;;;;;;;;;33.33;27.33;;;;;3.28;92.01;99456.84;5028855;28;45449;-77
2022/12/06 02:34:35;;;;;;;;;31.33;25.00;;;;;3.25;91.99;99456.84;5012006;28;45430;-77
2022/12/06 02:37:09;;;;;;;;;39.33;28.00;;;;;3.24;92.26;99459.47;5013238;28;46334;-77
2022/12/06 02:39:47;;;;;;;;;46.67;37.67;;;;;3.24;92.53;99455.13;5011561;28;45449;-77
2022/12/06 02:42:36;;;;;;;;;45.33;32.67;;;;;3.23;92.12;99449.91;5013899;28;45388;-77
2022/12/06 02:45:13;;;;;;;;;37.33;34.67;;;;;3.21;92.49;99452.53;5011721;28;45425;-77
2022/12/06 02:47:39;;;;;;;;;44.67;36.33;;;;;3.17;92.19;99450.84;5015670;28;46800;-77
2022/12/06 02:50:24;;;;;;;;;34.33;30.00;;;;;3.17;92.53;99460.38;5017165;28;45355;-77
2022/12/06 02:52:53;;;;;;;;;34.67;29.33;;;;;3.14;92.64;99456.91;5017008;28;45420;-77
2022/12/06 02:55:22;;;;;;;;;39.33;30.67;;;;;3.13;92.58;99451.72;5016610;28;45548;-77
2022/12/06 02:57:51;;;;;;;;;32.67;28.67;;;;;3.13;92.63;99449.13;5016428;28;46409;-77
2022/12/06 03:00:34;;;;;;;;;40.67;34.67;;;;;3.13;92.79;99449.13;5032332;28;45425;-77
2022/12/06 03:03:25;;;;;;;;;36.67;29.33;;;;;3.11;92.75;99443.03;5032633;28;45353;-77
2022/12/06 03:06:00;;;;;;;;;30.00;25.00;;;;;3.11;93.09;99443.91;5031988;28;45432;-77
2022/12/06 03:08:47;;;;;;;;;33.00;29.33;;;;;3.08;92.37;99449.13;5028277;28;47373;-77
2022/12/06 03:11:13;;;;;;;;;20.00;14.67;;;;;3.08;92.81;99445.66;4996921;28;45390;-77
2022/12/06 03:13:58;;;;;;;;;43.33;26.00;;;;;3.08;92.04;99449.13;5011681;28;45401;-77
2022/12/06 03:16:29;;;;;;;;;27.33;20.67;;;;;3.04;91.90;99447.41;5016774;28;45429;-77
2022/12/06 03:19:08;;;;;;;;;32.33;27.67;;;;;3.02;91.81;99445.66;5016425;28;45402;-77
2022/12/06 03:21:42;;;;;;;;;28.33;26.00;;;;;3.00;91.35;99450.06;5016637;28;45352;-77
2022/12/06 03:24:13;;;;;;;;;25.00;22.67;;;;;2.96;91.28;99445.72;5016874;28;45381;-77
2022/12/06 03:26:40;;;;;;;;;23.00;21.33;;;;;2.93;91.26;99456.16;5016749;28;45421;-77
2022/12/06 03:29:08;;;;;;;;;34.33;28.00;;;;;2.92;91.80;99454.41;5016435;28;46168;-77
2022/12/06 03:31:37;;;;;;;;;25.00;23.00;;;;;2.92;92.01;99454.41;5015075;28;45406;-77
2022/12/06 03:34:13;;;;;;;;;27.67;25.00;;;;;2.93;92.14;99448.34;5016713;28;45477;-77
2022/12/06 03:36:40;;;;;;;;;35.33;26.00;;;;;2.92;92.05;99447.47;5016401;28;45427;-77
2022/12/06 03:39:07;;;;;;;;;9.33;6.00;;;;;2.93;92.27;99445.72;5014479;28;47157;-77
2022/12/06 03:41:47;;;;;;;;;26.67;24.67;;;;;2.91;91.72;99444.88;5015774;28;45480;-77
2022/12/06 03:44:13;;;;;;;;;26.67;23.00;;;;;2.88;92.27;99437.94;5016431;28;45463;-77
2022/12/06 03:46:46;;;;;;;;;36.33;30.33;;;;;2.89;92.43;99434.44;5014953;28;45498;-77
2022/12/06 03:49:39;;;;;;;;;28.33;26.33;;;;;2.88;91.77;99431.84;5014301;28;45365;-77
2022/12/06 03:52:05;;;;;;;;;30.00;25.33;;;;;2.86;91.91;99428.38;5014893;28;45387;-77
2022/12/06 03:54:30;;;;;;;;;17.33;14.67;;;;;2.83;91.80;99434.50;5015847;28;45351;-77
2022/12/06 03:56:55;;;;;;;;;32.33;27.67;;;;;2.82;92.22;99429.28;5016386;28;45593;-77
2022/12/06 03:59:21;;;;;;;;;33.00;30.67;;;;;2.82;91.91;99424.09;5015762;28;45417;-77
2022/12/06 04:01:46;;;;;;;;;22.33;20.00;;;;;2.79;92.33;99424.97;5016319;28;45462;-77
2022/12/06 04:04:12;;;;;;;;;29.67;23.00;;;;;2.78;92.33;99421.50;5016233;28;45534;-77
2022/12/06 04:06:37;;;;;;;;;26.33;18.67;;;;;2.80;92.41;99424.97;5016289;28;45382;-77
2022/12/06 04:11:47;;;;;;;;;36.67;32.00;;;;;2.83;92.55;99420.63;5016138;28;45373;-77
2022/12/06 04:14:12;;;;;;;;;34.67;29.00;;;;;2.85;92.87;99430.13;5016193;28;45460;-77
2022/12/06 04:19:22;;;;;;;;;39.67;25.33;;;;;2.90;92.71;99423.16;5015708;28;45763;-77
2022/12/06 04:24:31;;;;;;;;;24.00;18.33;;;;;2.89;nan;99418.81;5015724;28;45448;-77
2022/12/06 04:40:40;;;;;;;;;30.67;23.67;;;;;2.90;92.83;99424.91;5015335;28;45395;-77
2022/12/06 04:45:52;;;;;;;;;21.33;17.33;;;;;2.88;92.33;99417.09;5015219;28;45535;-77
2022/12/06 04:48:17;;;;;;;;;23.33;19.33;;;;;2.86;93.04;99415.38;5014881;28;45573;-77
2022/12/06 04:50:49;;;;;;;;;16.00;12.00;;;;;2.86;92.82;99415.38;5015345;28;45942;-77
2022/12/06 04:53:14;;;;;;;;;24.67;22.67;;;;;2.84;92.69;99424.94;5030489;28;45399;-77
2022/12/06 04:55:43;;;;;;;;;26.67;22.00;;;;;2.83;92.81;99410.19;5030395;28;45414;-77
2022/12/06 04:58:09;;;;;;;;;28.67;19.33;;;;;2.82;93.02;99413.69;5030050;28;45493;-77
2022/12/06 05:00:34;;;;;;;;;1.00;0.00;;;;;2.80;92.53;99411.94;5013540;28;46595;-77
2022/12/06 05:02:59;;;;;;;;;23.00;19.67;;;;;2.80;92.74;99405.88;5015271;28;45400;-78
2022/12/06 05:05:25;;;;;;;;;23.00;14.67;;;;;2.80;92.69;99413.69;5029492;28;45940;-77
2022/12/06 05:07:50;;;;;;;;;19.33;14.67;;;;;2.78;92.11;99418.03;5014359;28;45535;-77
2022/12/06 05:10:16;;;;;;;;;20.33;13.33;;;;;2.72;91.97;99407.63;5014752;28;45888;-77
2022/12/06 05:12:41;;;;;;;;;22.00;17.00;;;;;2.68;92.34;99416.34;5015257;28;45381;-77
2022/12/06 05:15:07;;;;;;;;;19.33;15.67;;;;;2.64;92.19;99409.41;5014862;28;45511;-77
2022/12/06 05:17:32;;;;;;;;;27.33;22.00;;;;;2.59;92.26;99414.63;5014449;28;45298;-77
2022/12/06 05:19:58;;;;;;;;;22.00;15.67;;;;;2.55;92.66;99412.03;5014405;28;46213;-77
2022/12/06 05:22:23;;;;;;;;;25.33;20.33;;;;;2.52;92.97;99412.91;5014907;28;45419;-77
2022/12/06 05:24:48;;;;;;;;;22.67;18.00;;;;;2.51;93.08;99407.72;5014406;28;45436;-77
2022/12/06 05:27:14;;;;;;;;;17.33;16.33;;;;;2.49;92.91;99409.47;5014501;28;45552;-77
2022/12/06 05:29:40;;;;;;;;;22.67;19.00;;;;;2.48;92.80;99410.34;5014082;28;46486;-77
2022/12/06 05:32:05;;;;;;;;;23.00;17.00;;;;;2.45;92.86;99409.47;5014196;28;45348;-76
2022/12/06 05:34:30;;;;;;;;;17.67;15.33;;;;;2.43;93.16;99410.34;5014754;28;45648;-77
2022/12/06 05:36:56;;;;;;;;;20.33;17.67;;;;;2.42;93.36;99414.66;5014611;28;45409;-77
2022/12/06 05:39:21;;;;;;;;;12.67;11.67;;;;;2.40;92.91;99412.94;5013903;28;45458;-77
2022/12/06 05:41:47;;;;;;;;;19.00;18.33;;;;;2.37;93.37;99420.75;5014674;28;45445;-77
2022/12/06 05:44:12;;;;;;;;;22.00;18.00;;;;;2.35;93.18;99417.28;5009976;28;45537;-77
2022/12/06 05:46:37;;;;;;;;;21.67;16.00;;;;;2.34;93.42;99425.97;5036079;28;45575;-77
2022/12/06 05:49:03;;;;;;;;;26.67;19.00;;;;;2.35;93.44;99430.28;5006745;28;47993;-77
2022/12/06 05:51:28;;;;;;;;;23.00;18.00;;;;;2.35;93.49;99435.50;5001962;28;45400;-77
2022/12/06 05:53:54;;;;;;;;;22.00;15.33;;;;;2.36;93.83;99443.28;5013583;28;45604;-77
2022/12/06 05:56:19;;;;;;;;;27.00;20.33;;;;;2.39;93.68;99445.03;5013697;28;45592;-77
2022/12/06 05:58:44;;;;;;;;;21.33;15.00;;;;;2.40;94.17;99450.22;5014118;28;45532;-77
2022/12/06 06:01:10;;;;;;;;;21.67;18.00;;;;;2.44;94.27;99440.69;5014167;28;45478;-77
2022/12/06 06:03:36;;;;;;;;;23.33;22.33;;;;;2.48;94.31;99446.75;5014036;28;45423;-77
2022/12/06 06:06:02;;;;;;;;;29.00;22.33;;;;;2.54;94.42;99445.00;5012886;28;45428;-77
2022/12/06 06:08:29;;;;;;;;;18.00;15.00;;;;;2.60;94.44;99444.13;5013589;28;46625;-77
2022/12/06 06:10:54;;;;;;;;;27.33;21.00;;;;;2.63;94.26;99444.97;5013380;28;45371;-77
2022/12/06 06:13:20;;;;;;;;;29.33;22.67;;;;;2.65;94.14;99451.06;5012536;28;45324;-77
2022/12/06 06:15:47;;;;;;;;;18.67;15.33;;;;;2.70;93.98;99449.28;5028813;28;45378;-77
2022/12/06 06:18:14;;;;;;;;;29.33;23.33;;;;;2.74;94.09;99455.34;5014750;28;45582;-77
2022/12/06 06:20:39;;;;;;;;;30.67;25.00;;;;;2.77;94.00;99457.94;5015507;28;45453;-77
2022/12/06 06:23:05;;;;;;;;;39.00;33.00;;;;;2.80;93.85;99455.34;5017143;28;45483;-77
2022/12/06 06:25:30;;;;;;;;;41.00;31.67;;;;;2.83;93.59;99454.47;5017016;28;45401;-77
2022/12/06 06:27:55;;;;;;;;;34.67;28.33;;;;;2.86;93.94;99457.03;5015749;28;46444;-77
2022/12/06 06:30:21;;;;;;;;;34.00;28.33;;;;;2.90;93.38;99456.16;5015762;28;45403;-77
2022/12/06 06:32:46;;;;;;;;;32.00;26.67;;;;;2.93;93.63;99454.41;5016767;28;45460;-77
2022/12/06 06:35:12;;;;;;;;;31.67;27.33;;;;;2.96;93.11;99457.00;5048598;28;45950;-77
2022/12/06 06:37:37;;;;;;;;;34.00;23.00;;;;;2.97;93.20;99452.66;5015907;28;45453;-77
2022/12/06 06:40:03;;;;;;;;;31.67;25.33;;;;;2.99;93.03;99454.38;5015686;28;45344;-77
2022/12/06 06:42:28;;;;;;;;;33.33;27.00;;;;;3.00;93.24;99450.06;5016464;28;45352;-77
2022/12/06 06:44:54;;;;;;;;;25.33;23.67;;;;;3.01;93.14;99441.38;5015729;28;45281;-77
2022/12/06 06:47:20;;;;;;;;;33.33;31.00;;;;;3.01;92.80;99447.44;5015854;28;45560;-77
2022/12/06 06:49:46;;;;;;;;;23.00;20.00;;;;;3.01;92.59;99450.03;5026608;28;45417;-77
2022/12/06 06:52:12;;;;;;;;;34.33;25.33;;;;;3.02;92.42;99443.94;5016182;28;45389;-78
2022/12/06 06:54:37;;;;;;;;;31.33;22.00;;;;;3.03;92.27;99443.06;5015011;28;45361;-76
2022/12/06 06:57:03;;;;;;;;;25.67;23.67;;;;;3.01;92.27;99442.22;5015866;28;46225;-78
2022/12/06 06:59:28;;;;;;;;;28.33;23.33;;;;;3.04;92.44;99443.94;5030941;28;45507;-78
2022/12/06 07:01:54;;;;;;;;;31.67;25.00;;;;;3.06;92.75;99439.59;5015910;28;45411;-77
2022/12/06 07:04:19;;;;;;;;;28.00;26.00;;;;;3.08;92.64;99441.31;5012628;28;45421;-77
2022/12/06 07:06:44;;;;;;;;;33.00;32.00;;;;;3.11;92.71;99436.09;5015791;28;46536;-77
2022/12/06 07:09:10;;;;;;;;;34.00;27.00;;;;;3.15;92.41;99443.03;5005412;28;45496;-77
2022/12/06 07:11:35;;;;;;;;;22.33;20.67;;;;;3.15;92.07;99440.41;5015286;28;45394;-78
2022/12/06 07:14:02;;;;;;;;;24.67;19.67;;;;;3.15;91.74;99434.34;5015645;28;45575;-78
2022/12/06 07:16:27;;;;;;;;;30.00;25.67;;;;;3.13;91.52;99439.56;5015449;28;46576;-77
2022/12/06 07:18:53;;;;;;;;;30.67;23.67;;;;;3.12;91.47;99430.00;5014664;28;45506;-77
2022/12/06 07:21:18;;;;;;;;;24.67;23.67;;;;;3.11;91.45;99440.44;5015369;28;45626;-77
2022/12/06 07:23:44;;;;;;;;;5.67;3.67;;;;;3.10;91.79;99439.56;5014591;28;45388;-77
2022/12/06 07:26:14;;;;;;;;;44.00;35.00;;;;;3.10;91.44;99447.38;5015778;28;46304;-77
2022/12/06 07:28:42;;;;;;;;;39.67;33.67;;;;;3.09;91.68;99450.00;5014748;28;45495;-77
2022/12/06 07:31:11;;;;;;;;;38.33;28.67;;;;;3.09;91.49;99448.25;5015058;28;45432;-77
2022/12/06 07:33:37;;;;;;;;;34.67;27.33;;;;;3.10;91.60;99451.72;5015080;28;45430;-78
2022/12/06 07:36:03;;;;;;;;;35.67;30.33;;;;;3.10;91.54;99449.13;5015042;28;45821;-76
2022/12/06 07:38:29;;;;;;;;;29.67;23.00;;;;;3.09;91.75;99450.00;5014555;28;45435;-78
2022/12/06 07:40:58;;;;;;;;;28.67;24.33;;;;;3.09;91.32;99450.00;5015663;28;45633;-77
2022/12/06 07:46:11;;;;;;;;;29.00;26.00;;;;;3.09;91.40;99450.00;5015245;28;45898;-78
2022/12/06 07:48:37;;;;;;;;;40.67;35.67;;;;;3.09;91.36;99444.78;5014955;28;45371;-77
2022/12/06 07:51:06;;;;;;;;;37.67;32.00;;;;;3.06;90.98;99445.66;5015047;28;45338;-76
2022/12/06 07:53:31;;;;;;;;;35.00;31.33;;;;;3.05;90.92;99449.13;5015250;28;45816;-77
2022/12/06 07:55:56;;;;;;;;;42.00;34.00;;;;;3.04;91.21;99449.13;5015083;28;46150;-78
2022/12/06 07:58:22;;;;;;;;;29.33;23.33;;;;;3.06;91.19;99452.59;5015293;28;45378;-78
2022/12/06 08:00:47;;;;;;;;;34.33;30.33;;;;;3.05;91.00;99450.88;5014005;28;45537;-78
2022/12/06 08:03:13;;;;;;;;;27.33;26.33;;;;;3.05;91.21;99453.47;5015406;28;45540;-78
2022/12/06 08:05:39;;;;;;;;;36.00;27.67;;;;;3.07;90.89;99463.03;5013273;28;47603;-77
2022/12/06 08:08:04;;;;;;;;;21.67;16.67;;;;;3.06;90.68;99453.47;5014689;28;45375;-78
2022/12/06 08:10:29;;;;;;;;;27.00;26.33;;;;;3.06;90.96;99456.06;5015293;28;45308;-78
2022/12/06 08:12:55;;;;;;;;;32.33;26.00;;;;;3.08;90.96;99463.88;5015290;28;45598;-79
2022/12/06 08:15:20;;;;;;;;;30.00;24.00;;;;;3.10;90.84;99456.94;5014919;28;45450;-69
2022/12/06 08:17:46;;;;;;;;;25.00;20.33;;;;;3.15;90.82;99457.78;5013584;28;45448;-70
2022/12/06 08:20:11;;;;;;;;;22.00;21.00;;;;;3.20;90.22;99455.13;5015215;28;45370;-71
2022/12/06 08:22:37;;;;;;;;;28.67;25.00;;;;;3.22;90.19;99456.00;5012605;28;45448;-71
2022/12/06 08:25:02;;;;;;;;;38.33;25.67;;;;;3.23;90.26;99452.53;5014573;28;45490;-71
2022/12/06 08:27:27;;;;;;;;;30.00;24.67;;;;;3.26;90.15;99453.38;5014575;28;45311;-70
2022/12/06 08:29:53;;;;;;;;;37.33;29.33;;;;;3.29;89.94;99449.91;5014104;28;45453;-71
2022/12/06 08:32:18;;;;;;;;;29.67;23.00;;;;;3.32;89.79;99452.50;5029384;28;45806;-71
2022/12/06 08:34:44;;;;;;;;;30.67;27.00;;;;;3.30;89.85;99446.41;5029623;28;45410;-70
2022/12/06 08:37:10;;;;;;;;;34.33;28.00;;;;;3.29;89.03;99448.16;5014539;28;45392;-70
2022/12/06 08:39:36;;;;;;;;;31.00;23.67;;;;;3.26;89.35;99450.78;5013207;28;45579;-70
2022/12/06 08:42:02;;;;;;;;;27.00;23.67;;;;;3.24;89.18;99452.50;5012390;28;45384;-70
2022/12/06 08:44:29;;;;;;;;;20.00;19.00;;;;;3.26;89.40;99448.16;5013909;28;46197;-70
2022/12/06 08:46:57;;;;;;;;;29.67;24.67;;;;;3.29;89.46;99445.56;5013066;28;45394;-70
2022/12/06 08:49:24;;;;;;;;;22.33;20.00;;;;;3.31;89.10;99451.63;5012757;28;45436;-70
2022/12/06 08:51:50;;;;;;;;;24.00;20.00;;;;;3.32;89.27;99442.06;5013346;28;45453;-71
2022/12/06 08:54:18;;;;;;;;;24.00;18.33;;;;;3.34;88.99;99441.19;5012784;28;46156;-69
2022/12/06 08:56:44;;;;;;;;;27.00;24.00;;;;;3.35;88.86;99445.50;5011495;28;45401;-70
2022/12/06 08:59:09;;;;;;;;;28.67;23.67;;;;;3.37;88.47;99435.06;5012826;28;45880;-70
2022/12/06 09:01:35;;;;;;;;;25.67;20.67;;;;;3.39;88.50;99439.41;5013145;28;45438;-70
2022/12/06 09:04:02;;;;;;;;;28.00;21.67;;;;;3.41;88.39;99455.03;5011764;28;46721;-69
2022/12/06 09:06:28;;;;;;;;;20.33;19.33;;;;;3.43;88.35;99445.47;5014277;28;45385;-73
2022/12/06 09:08:55;;;;;;;;;25.00;19.67;;;;;3.43;88.40;99446.31;5013723;28;45448;-69
2022/12/06 09:11:21;;;;;;;;;23.67;22.00;;;;;3.42;88.11;99444.59;5014571;28;45432;-70
2022/12/06 09:13:46;;;;;;;;;28.00;20.67;;;;;3.46;88.01;99453.25;5014122;28;46162;-69
2022/12/06 09:16:18;;;;;;;;;25.00;21.67;;;;;3.50;88.27;99452.38;5014186;28;45412;-70
2022/12/06 09:18:45;;;;;;;;;24.33;23.00;;;;;3.54;88.17;99451.47;5011372;28;45452;-69
2022/12/06 09:21:16;;;;;;;;;26.00;20.00;;;;;3.58;88.20;99449.69;5029340;28;45453;-70
2022/12/06 09:23:41;;;;;;;;;29.33;23.33;;;;;3.65;88.00;99448.81;5013725;28;45458;-70
2022/12/06 09:26:07;;;;;;;;;34.33;23.67;;;;;3.66;88.12;99445.31;5014522;28;45430;-70
2022/12/06 09:28:35;;;;;;;;;27.00;23.67;;;;;3.68;87.83;99451.38;5013047;28;45441;-70
2022/12/06 09:31:01;;;;;;;;;23.33;20.33;;;;;3.72;87.85;99453.06;5014472;28;45431;-70
2022/12/06 09:33:27;;;;;;;;;26.00;24.67;;;;;3.74;87.68;99449.59;5014108;28;45404;-69
2022/12/06 09:35:53;;;;;;;;;32.67;25.67;;;;;3.74;87.63;99457.41;5014359;28;45452;-70
2022/12/06 09:38:21;;;;;;;;;22.00;21.33;;;;;3.73;87.24;99460.88;5007134;28;45533;-70
2022/12/06 09:41:08;;;;;;;;;24.33;22.33;;;;;3.74;87.41;99456.53;5014200;28;45498;-70
2022/12/06 09:44:07;;;;;;;;;36.33;28.00;;;;;3.75;87.46;99458.28;5028955;28;46321;-70
2022/12/06 09:47:00;;;;;;;;;26.00;24.00;;;;;3.76;86.93;99454.78;5014077;28;45506;-71
2022/12/06 09:49:39;;;;;;;;;32.33;28.00;;;;;3.79;87.31;99462.59;5013677;28;45413;-69
2022/12/06 09:52:27;;;;;;;;;24.00;20.67;;;;;3.82;87.24;99460.84;5013793;28;45394;-70
2022/12/06 09:54:58;;;;;;;;;31.00;27.00;;;;;3.86;87.16;99456.44;5013288;28;45345;-70
2022/12/06 09:57:44;;;;;;;;;25.67;23.67;;;;;3.86;87.21;99452.09;5013485;28;45376;-69
2022/12/06 10:00:17;;;;;;;;;36.67;31.00;;;;;3.86;86.99;99452.09;5013905;28;45326;-70
2022/12/06 10:03:14;;;;;;;;;32.67;32.00;;;;;3.90;87.00;99446.84;5013438;28;45360;-71
2022/12/06 10:05:56;;;;;;;;;35.00;25.67;;;;;3.91;86.82;99448.59;5013150;28;46163;-71
2022/12/06 10:08:56;;;;;;;;;35.00;24.00;;;;;3.92;86.63;99442.50;5012874;28;45412;-71
2022/12/06 10:11:51;;;;;;;;;43.67;28.33;;;;;3.92;86.54;99437.28;5013810;28;45536;-70
2022/12/06 10:14:23;;;;;;;;;36.00;28.33;;;;;3.90;86.24;99449.47;5013591;28;45346;-70
2022/12/06 10:17:19;;;;;;;;;29.33;23.67;;;;;3.89;86.22;99439.91;5013221;28;45708;-71
2022/12/06 10:20:27;;;;;;;;;30.00;22.67;;;;;3.92;85.72;99435.53;5013053;28;45390;-70
2022/12/06 10:23:08;;;;;;;;;30.67;26.00;;;;;4.03;85.71;99430.22;5008034;28;45472;-70
2022/12/06 10:25:40;;;;;;;;;36.33;24.00;;;;;4.10;85.12;99429.28;5013482;28;45360;-70
2022/12/06 10:28:08;;;;;;;;;31.00;30.00;;;;;4.17;84.90;99425.75;5013395;28;45448;-70
2022/12/06 10:30:44;;;;;;;;;35.00;31.00;;;;;4.23;84.53;99425.69;5013232;28;45473;-70
2022/12/06 10:33:31;;;;;;;;;41.33;34.00;;;;;4.31;84.71;99417.78;5013305;28;45473;-70
2022/12/06 10:36:04;;;;;;;;;31.00;29.00;;;;;4.38;84.51;99414.22;5012599;28;45488;-70
2022/12/06 10:38:37;;;;;;;;;34.33;28.00;;;;;4.47;84.55;99425.44;5012449;28;45367;-70
2022/12/06 10:41:15;;;;;;;;;30.67;29.00;;;;;4.54;84.44;99416.66;5013600;28;45373;-70
2022/12/06 10:43:51;;;;;;;;;36.00;31.67;;;;;4.62;84.39;99403.53;5013374;28;45390;-70
2022/12/06 10:49:30;;;;;;;;;43.67;34.00;;;;;4.74;84.35;99400.75;5012856;28;45796;-70
2022/12/06 10:52:17;;;;;;;;;37.00;34.33;;;;;4.80;83.78;99405.06;5012903;28;45410;-70
2022/12/06 10:54:49;;;;;;;;;35.33;31.67;;;;;4.79;82.86;99403.31;5012793;28;45479;-70
2022/12/06 10:57:24;;;;;;;;;32.67;27.00;;;;;4.78;82.87;99396.38;5028311;28;45413;-70
2022/12/06 11:00:03;;;;;;;;;50.67;37.00;;;;;4.84;83.41;99388.47;5012394;28;45974;-70
2022/12/06 11:02:39;;;;;;;;;46.33;39.67;;;;;4.94;83.63;99389.19;5012493;28;45453;-70
2022/12/06 11:05:21;;;;;;;;;46.00;37.00;;;;;5.07;83.06;99388.13;5015597;28;45385;-70
2022/12/06 11:07:51;;;;;;;;;46.33;39.33;;;;;5.17;82.40;99389.75;5015757;28;45420;-70
2022/12/06 11:10:27;;;;;;;;;48.67;39.67;;;;;5.24;81.85;99384.41;5015538;28;46076;-70
2022/12/06 11:13:00;;;;;;;;;39.00;33.67;;;;;5.29;81.88;99378.25;5015741;28;45392;-69
2022/12/06 11:15:37;;;;;;;;;41.67;34.67;;;;;5.32;81.44;99386.06;5015995;28;45396;-69
2022/12/06 11:18:15;;;;;;;;;47.33;35.33;;;;;5.31;80.86;99382.56;5016087;28;45404;-69
2022/12/06 11:20:49;;;;;;;;;33.33;29.67;;;;;5.31;80.66;99371.25;5014364;28;46326;-69
2022/12/06 11:23:52;;;;;;;;;34.67;26.33;;;;;5.34;80.86;99387.75;5015921;28;45365;-71
2022/12/06 11:26:29;;;;;;;;;29.67;25.00;;;;;5.38;80.42;99368.50;5016335;28;45426;-69
2022/12/06 11:29:07;;;;;;;;;38.33;35.00;;;;;5.36;80.05;99372.94;5015651;28;45372;-70
2022/12/06 11:31:45;;;;;;;;;44.33;33.67;;;;;5.33;80.31;99370.34;5015813;28;46049;-68
2022/12/06 11:34:34;;;;;;;;;40.50;32.00;;;;;5.29;80.23;99381.72;5014764;28;45436;-71
2022/12/06 11:37:02;;;;;;;;;35.00;29.33;;;;;5.20;79.75;99374.00;5013686;28;45496;-68
2022/12/06 11:39:30;;;;;;;;;35.00;30.00;;;;;5.15;80.21;99375.84;5015388;28;45637;-69
2022/12/06 11:41:59;;;;;;;;;43.00;33.00;;;;;5.14;80.64;99371.50;5015720;28;46417;-69
2022/12/06 11:44:35;;;;;;;;;48.33;33.00;;;;;5.16;80.77;99374.97;5015624;28;45518;-69
2022/12/06 11:47:01;;;;;;;;;35.33;27.67;;;;;5.18;80.38;99367.97;5031073;28;45358;-69
2022/12/06 11:49:33;;;;;;;;;38.33;29.00;;;;;5.16;79.89;99354.06;5015027;28;45398;-69
2022/12/06 11:52:05;;;;;;;;;46.33;38.67;;;;;5.20;80.13;99359.19;5013899;28;45764;-70
2022/12/06 11:54:41;;;;;;;;;28.67;27.67;;;;;5.23;79.72;99351.31;5014632;28;45378;-69
2022/12/06 11:57:22;;;;;;;;;40.33;33.00;;;;;5.28;79.56;99353.00;5015525;28;45535;-70
2022/12/06 12:00:16;;;;;;;;;38.00;33.00;;;;;5.30;79.69;99346.00;5015114;28;45424;-69
2022/12/06 12:02:44;;;;;;;;;44.67;35.33;;;;;5.29;79.64;99337.28;5014982;28;46279;-71
2022/12/06 12:05:24;;;;;;;;;47.00;36.67;;;;;5.28;79.53;99326.88;5030595;28;45449;-71
2022/12/06 12:07:59;;;;;;;;;39.67;34.00;;;;;5.31;79.65;99330.31;5001478;28;45394;-69
2022/12/06 12:10:25;;;;;;;;;41.00;33.67;;;;;5.32;79.52;99321.56;5014775;28;45318;-71